sensor_id;sensor_type;location;lat;lon;timestamp;P1;durP1;ratioP1;P2;durP2;ratioP2
7487;SDS011;3785;52.260;4.728;2023-08-06T00:00:05;4.60;;;3.20;;
7487;SDS011;3785;52.260;4.728;2023-08-06T00:03:27;4.28;;;3.22;;
7487;SDS011;3785;52.260;4.728;2023-08-06T00:06:48;4.88;;;3.42;;
7487;SDS011;3785;52.260;4.728;2023-08-06T00:10:09;4.97;;;3.90;;
7487;SDS011;3785;52.260;4.728;2023-08-06T00:13:30;6.38;;;4.38;;
7487;SDS011;3785;52.260;4.728;2023-08-06T00:16:50;6.18;;;4.15;;
7487;SDS011;3785;52.260;4.728;2023-08-06T00:20:11;6.65;;;4.40;;
7487;SDS011;3785;52.260;4.728;2023-08-06T00:23:32;6.18;;;4.10;;
7487;SDS011;3785;52.260;4.728;2023-08-06T00:26:53;6.03;;;4.03;;
7487;SDS011;3785;52.260;4.728;2023-08-06T00:30:14;5.55;;;3.90;;
7487;SDS011;3785;52.260;4.728;2023-08-06T00:33:35;6.13;;;4.05;;
7487;SDS011;3785;52.260;4.728;2023-08-06T00:36:56;5.97;;;4.13;;
7487;SDS011;3785;52.260;4.728;2023-08-06T00:40:19;5.10;;;3.65;;
7487;SDS011;3785;52.260;4.728;2023-08-06T00:43:41;5.38;;;4.00;;
7487;SDS011;3785;52.260;4.728;2023-08-06T00:47:02;6.50;;;4.03;;
7487;SDS011;3785;52.260;4.728;2023-08-06T00:50:23;6.45;;;4.22;;
7487;SDS011;3785;52.260;4.728;2023-08-06T00:53:44;6.55;;;4.47;;
7487;SDS011;3785;52.260;4.728;2023-08-06T00:57:05;6.60;;;4.60;;
7487;SDS011;3785;52.260;4.728;2023-08-06T01:00:28;5.55;;;4.13;;
7487;SDS011;3785;52.260;4.728;2023-08-06T01:03:50;6.65;;;4.35;;
7487;SDS011;3785;52.260;4.728;2023-08-06T01:14:19;6.38;;;4.75;;
7487;SDS011;3785;52.260;4.728;2023-08-06T01:17:41;6.70;;;4.82;;
7487;SDS011;3785;52.260;4.728;2023-08-06T01:21:03;5.55;;;4.47;;
7487;SDS011;3785;52.260;4.728;2023-08-06T01:24:23;6.90;;;5.00;;
7487;SDS011;3785;52.260;4.728;2023-08-06T01:27:46;6.63;;;4.95;;
7487;SDS011;3785;52.260;4.728;2023-08-06T01:31:10;6.90;;;4.85;;
7487;SDS011;3785;52.260;4.728;2023-08-06T01:34:35;7.68;;;5.07;;
7487;SDS011;3785;52.260;4.728;2023-08-06T01:37:56;6.05;;;4.65;;
7487;SDS011;3785;52.260;4.728;2023-08-06T01:41:17;6.53;;;4.35;;
7487;SDS011;3785;52.260;4.728;2023-08-06T01:44:38;8.15;;;5.00;;
7487;SDS011;3785;52.260;4.728;2023-08-06T01:47:59;6.28;;;4.53;;
7487;SDS011;3785;52.260;4.728;2023-08-06T01:51:20;6.03;;;4.55;;
7487;SDS011;3785;52.260;4.728;2023-08-06T01:54:41;7.13;;;4.15;;
7487;SDS011;3785;52.260;4.728;2023-08-06T01:58:02;6.25;;;4.15;;
7487;SDS011;3785;52.260;4.728;2023-08-06T02:01:23;5.40;;;4.00;;
7487;SDS011;3785;52.260;4.728;2023-08-06T02:04:45;5.25;;;3.30;;
7487;SDS011;3785;52.260;4.728;2023-08-06T02:08:06;6.05;;;3.42;;
7487;SDS011;3785;52.260;4.728;2023-08-06T02:11:27;7.60;;;4.38;;
7487;SDS011;3785;52.260;4.728;2023-08-06T02:14:48;7.20;;;4.85;;
7487;SDS011;3785;52.260;4.728;2023-08-06T02:18:09;7.35;;;4.32;;
7487;SDS011;3785;52.260;4.728;2023-08-06T02:21:30;9.80;;;5.30;;
7487;SDS011;3785;52.260;4.728;2023-08-06T02:24:51;8.32;;;4.80;;
7487;SDS011;3785;52.260;4.728;2023-08-06T02:28:12;7.38;;;4.75;;
7487;SDS011;3785;52.260;4.728;2023-08-06T02:31:33;7.93;;;4.85;;
7487;SDS011;3785;52.260;4.728;2023-08-06T02:34:54;8.02;;;5.03;;
7487;SDS011;3785;52.260;4.728;2023-08-06T02:38:15;5.32;;;4.25;;
7487;SDS011;3785;52.260;4.728;2023-08-06T02:41:36;4.35;;;3.10;;
7487;SDS011;3785;52.260;4.728;2023-08-06T02:44:57;4.38;;;2.97;;
7487;SDS011;3785;52.260;4.728;2023-08-06T02:48:18;5.85;;;2.72;;
7487;SDS011;3785;52.260;4.728;2023-08-06T02:51:39;5.70;;;3.05;;
7487;SDS011;3785;52.260;4.728;2023-08-06T02:55:00;4.57;;;2.58;;
7487;SDS011;3785;52.260;4.728;2023-08-06T02:58:21;4.57;;;2.80;;
7487;SDS011;3785;52.260;4.728;2023-08-06T03:01:42;4.07;;;2.15;;
7487;SDS011;3785;52.260;4.728;2023-08-06T03:05:03;3.13;;;2.63;;
7487;SDS011;3785;52.260;4.728;2023-08-06T03:08:26;4.63;;;3.03;;
7487;SDS011;3785;52.260;4.728;2023-08-06T03:11:47;5.40;;;3.15;;
7487;SDS011;3785;52.260;4.728;2023-08-06T03:15:08;5.40;;;3.20;;
7487;SDS011;3785;52.260;4.728;2023-08-06T03:18:29;6.72;;;3.15;;
7487;SDS011;3785;52.260;4.728;2023-08-06T03:21:50;5.28;;;3.08;;
7487;SDS011;3785;52.260;4.728;2023-08-06T03:25:11;3.60;;;2.55;;
7487;SDS011;3785;52.260;4.728;2023-08-06T03:28:32;3.70;;;1.67;;
7487;SDS011;3785;52.260;4.728;2023-08-06T03:31:53;3.00;;;1.50;;
7487;SDS011;3785;52.260;4.728;2023-08-06T03:35:14;2.08;;;1.42;;
7487;SDS011;3785;52.260;4.728;2023-08-06T03:38:35;3.20;;;1.50;;
7487;SDS011;3785;52.260;4.728;2023-08-06T03:41:56;2.83;;;1.40;;
7487;SDS011;3785;52.260;4.728;2023-08-06T03:45:17;2.42;;;1.30;;
7487;SDS011;3785;52.260;4.728;2023-08-06T03:48:38;2.67;;;1.05;;
7487;SDS011;3785;52.260;4.728;2023-08-06T03:51:58;2.22;;;1.17;;
7487;SDS011;3785;52.260;4.728;2023-08-06T03:55:20;2.67;;;1.10;;
7487;SDS011;3785;52.260;4.728;2023-08-06T03:58:41;2.00;;;1.20;;
7487;SDS011;3785;52.260;4.728;2023-08-06T04:02:02;1.98;;;1.25;;
7487;SDS011;3785;52.260;4.728;2023-08-06T04:05:23;2.10;;;1.15;;
7487;SDS011;3785;52.260;4.728;2023-08-06T04:08:43;3.10;;;1.10;;
7487;SDS011;3785;52.260;4.728;2023-08-06T04:12:05;4.85;;;1.40;;
7487;SDS011;3785;52.260;4.728;2023-08-06T04:15:26;2.50;;;1.42;;
7487;SDS011;3785;52.260;4.728;2023-08-06T04:18:47;3.83;;;1.60;;
7487;SDS011;3785;52.260;4.728;2023-08-06T04:22:08;2.47;;;1.42;;
7487;SDS011;3785;52.260;4.728;2023-08-06T04:25:28;2.55;;;1.42;;
7487;SDS011;3785;52.260;4.728;2023-08-06T04:28:49;2.25;;;1.42;;
7487;SDS011;3785;52.260;4.728;2023-08-06T04:32:11;3.10;;;1.40;;
7487;SDS011;3785;52.260;4.728;2023-08-06T04:35:31;2.95;;;1.88;;
7487;SDS011;3785;52.260;4.728;2023-08-06T04:38:52;3.40;;;1.42;;
7487;SDS011;3785;52.260;4.728;2023-08-06T04:42:13;2.15;;;1.48;;
7487;SDS011;3785;52.260;4.728;2023-08-06T04:45:34;2.30;;;1.40;;
7487;SDS011;3785;52.260;4.728;2023-08-06T04:48:55;2.63;;;1.77;;
7487;SDS011;3785;52.260;4.728;2023-08-06T04:52:16;2.83;;;1.85;;
7487;SDS011;3785;52.260;4.728;2023-08-06T04:55:37;1.92;;;1.38;;
7487;SDS011;3785;52.260;4.728;2023-08-06T04:58:58;2.28;;;1.63;;
7487;SDS011;3785;52.260;4.728;2023-08-06T05:02:19;2.88;;;1.67;;
7487;SDS011;3785;52.260;4.728;2023-08-06T05:05:41;3.33;;;1.85;;
7487;SDS011;3785;52.260;4.728;2023-08-06T05:09:02;4.07;;;1.70;;
7487;SDS011;3785;52.260;4.728;2023-08-06T05:12:23;3.25;;;1.67;;
7487;SDS011;3785;52.260;4.728;2023-08-06T05:15:43;2.80;;;1.60;;
7487;SDS011;3785;52.260;4.728;2023-08-06T05:19:06;3.55;;;1.60;;
7487;SDS011;3785;52.260;4.728;2023-08-06T05:22:27;2.13;;;1.65;;
7487;SDS011;3785;52.260;4.728;2023-08-06T05:25:48;1.83;;;1.42;;
7487;SDS011;3785;52.260;4.728;2023-08-06T05:29:09;2.15;;;1.60;;
7487;SDS011;3785;52.260;4.728;2023-08-06T05:32:30;2.53;;;1.60;;
7487;SDS011;3785;52.260;4.728;2023-08-06T05:35:51;2.88;;;1.83;;
7487;SDS011;3785;52.260;4.728;2023-08-06T05:39:12;2.55;;;1.88;;
7487;SDS011;3785;52.260;4.728;2023-08-06T05:42:33;2.80;;;1.80;;
7487;SDS011;3785;52.260;4.728;2023-08-06T05:45:54;2.30;;;1.63;;
7487;SDS011;3785;52.260;4.728;2023-08-06T05:49:15;3.03;;;1.88;;
7487;SDS011;3785;52.260;4.728;2023-08-06T05:52:36;2.30;;;1.70;;
7487;SDS011;3785;52.260;4.728;2023-08-06T05:55:57;5.75;;;2.53;;
7487;SDS011;3785;52.260;4.728;2023-08-06T05:59:17;4.68;;;2.50;;
7487;SDS011;3785;52.260;4.728;2023-08-06T06:02:38;3.75;;;2.35;;
7487;SDS011;3785;52.260;4.728;2023-08-06T06:06:00;4.25;;;2.95;;
7487;SDS011;3785;52.260;4.728;2023-08-06T06:09:22;5.57;;;2.70;;
7487;SDS011;3785;52.260;4.728;2023-08-06T06:12:43;4.00;;;2.80;;
7487;SDS011;3785;52.260;4.728;2023-08-06T06:16:04;4.10;;;2.65;;
7487;SDS011;3785;52.260;4.728;2023-08-06T06:19:25;4.00;;;2.90;;
7487;SDS011;3785;52.260;4.728;2023-08-06T06:22:46;4.45;;;3.00;;
7487;SDS011;3785;52.260;4.728;2023-08-06T06:26:07;6.50;;;2.80;;
7487;SDS011;3785;52.260;4.728;2023-08-06T06:29:28;4.43;;;2.78;;
7487;SDS011;3785;52.260;4.728;2023-08-06T06:32:49;4.15;;;2.42;;
7487;SDS011;3785;52.260;4.728;2023-08-06T06:36:10;4.90;;;2.88;;
7487;SDS011;3785;52.260;4.728;2023-08-06T06:39:31;5.75;;;3.28;;
7487;SDS011;3785;52.260;4.728;2023-08-06T06:42:52;4.72;;;3.10;;
7487;SDS011;3785;52.260;4.728;2023-08-06T06:46:13;4.82;;;2.47;;
7487;SDS011;3785;52.260;4.728;2023-08-06T06:49:34;5.35;;;2.63;;
7487;SDS011;3785;52.260;4.728;2023-08-06T06:52:55;4.07;;;2.83;;
7487;SDS011;3785;52.260;4.728;2023-08-06T06:56:16;5.70;;;2.53;;
7487;SDS011;3785;52.260;4.728;2023-08-06T06:59:37;4.60;;;2.42;;
7487;SDS011;3785;52.260;4.728;2023-08-06T07:02:58;4.90;;;2.72;;
7487;SDS011;3785;52.260;4.728;2023-08-06T07:06:19;8.95;;;3.20;;
7487;SDS011;3785;52.260;4.728;2023-08-06T07:09:40;5.80;;;2.60;;
7487;SDS011;3785;52.260;4.728;2023-08-06T07:13:01;4.03;;;2.40;;
7487;SDS011;3785;52.260;4.728;2023-08-06T07:16:22;4.57;;;2.50;;
7487;SDS011;3785;52.260;4.728;2023-08-06T07:19:43;3.67;;;2.10;;
7487;SDS011;3785;52.260;4.728;2023-08-06T07:23:04;3.83;;;2.00;;
7487;SDS011;3785;52.260;4.728;2023-08-06T07:26:25;4.13;;;1.98;;
7487;SDS011;3785;52.260;4.728;2023-08-06T07:29:46;4.10;;;2.10;;
7487;SDS011;3785;52.260;4.728;2023-08-06T07:33:08;4.75;;;2.17;;
7487;SDS011;3785;52.260;4.728;2023-08-06T07:36:29;3.15;;;2.03;;
7487;SDS011;3785;52.260;4.728;2023-08-06T07:39:50;4.82;;;2.35;;
7487;SDS011;3785;52.260;4.728;2023-08-06T07:43:11;3.83;;;1.83;;
7487;SDS011;3785;52.260;4.728;2023-08-06T07:46:32;3.03;;;1.85;;
7487;SDS011;3785;52.260;4.728;2023-08-06T07:49:55;4.53;;;1.70;;
7487;SDS011;3785;52.260;4.728;2023-08-06T07:53:16;5.15;;;1.98;;
7487;SDS011;3785;52.260;4.728;2023-08-06T07:56:37;3.30;;;1.55;;
7487;SDS011;3785;52.260;4.728;2023-08-06T07:59:58;2.90;;;1.63;;
7487;SDS011;3785;52.260;4.728;2023-08-06T08:03:19;5.45;;;1.52;;
7487;SDS011;3785;52.260;4.728;2023-08-06T08:06:40;5.30;;;1.48;;
7487;SDS011;3785;52.260;4.728;2023-08-06T08:10:02;2.65;;;1.52;;
7487;SDS011;3785;52.260;4.728;2023-08-06T08:13:25;3.65;;;1.40;;
7487;SDS011;3785;52.260;4.728;2023-08-06T08:16:46;2.33;;;1.20;;
7487;SDS011;3785;52.260;4.728;2023-08-06T08:20:07;2.03;;;1.10;;
7487;SDS011;3785;52.260;4.728;2023-08-06T08:23:29;2.45;;;1.30;;
7487;SDS011;3785;52.260;4.728;2023-08-06T08:26:51;2.08;;;1.00;;
7487;SDS011;3785;52.260;4.728;2023-08-06T08:30:12;4.35;;;1.15;;
7487;SDS011;3785;52.260;4.728;2023-08-06T08:33:33;2.65;;;1.23;;
7487;SDS011;3785;52.260;4.728;2023-08-06T08:36:54;2.05;;;0.80;;
7487;SDS011;3785;52.260;4.728;2023-08-06T08:40:16;1.42;;;0.80;;
7487;SDS011;3785;52.260;4.728;2023-08-06T08:43:37;2.95;;;1.10;;
7487;SDS011;3785;52.260;4.728;2023-08-06T08:46:59;2.30;;;1.10;;
7487;SDS011;3785;52.260;4.728;2023-08-06T08:50:20;2.47;;;0.90;;
7487;SDS011;3785;52.260;4.728;2023-08-06T08:53:42;2.85;;;0.82;;
7487;SDS011;3785;52.260;4.728;2023-08-06T08:57:04;1.15;;;0.73;;
7487;SDS011;3785;52.260;4.728;2023-08-06T09:00:25;1.52;;;0.70;;
7487;SDS011;3785;52.260;4.728;2023-08-06T09:03:47;1.33;;;0.70;;
7487;SDS011;3785;52.260;4.728;2023-08-06T09:07:08;1.73;;;0.63;;
7487;SDS011;3785;52.260;4.728;2023-08-06T09:10:30;1.42;;;0.98;;
7487;SDS011;3785;52.260;4.728;2023-08-06T09:13:51;3.50;;;0.63;;
7487;SDS011;3785;52.260;4.728;2023-08-06T09:17:14;2.67;;;1.10;;
7487;SDS011;3785;52.260;4.728;2023-08-06T09:20:39;1.92;;;0.88;;
7487;SDS011;3785;52.260;4.728;2023-08-06T09:24:00;2.83;;;1.10;;
7487;SDS011;3785;52.260;4.728;2023-08-06T09:27:22;1.70;;;0.80;;
7487;SDS011;3785;52.260;4.728;2023-08-06T09:30:43;2.28;;;1.10;;
7487;SDS011;3785;52.260;4.728;2023-08-06T09:34:06;2.50;;;1.17;;
7487;SDS011;3785;52.260;4.728;2023-08-06T09:37:35;1.95;;;0.90;;
7487;SDS011;3785;52.260;4.728;2023-08-06T09:40:56;2.45;;;1.05;;
7487;SDS011;3785;52.260;4.728;2023-08-06T09:44:18;2.13;;;0.80;;
7487;SDS011;3785;52.260;4.728;2023-08-06T09:47:39;4.65;;;1.08;;
7487;SDS011;3785;52.260;4.728;2023-08-06T09:51:00;4.07;;;1.10;;
7487;SDS011;3785;52.260;4.728;2023-08-06T09:54:23;2.17;;;1.02;;
7487;SDS011;3785;52.260;4.728;2023-08-06T09:57:44;3.83;;;1.02;;
7487;SDS011;3785;52.260;4.728;2023-08-06T10:01:05;2.97;;;1.25;;
7487;SDS011;3785;52.260;4.728;2023-08-06T10:04:26;2.50;;;1.40;;
7487;SDS011;3785;52.260;4.728;2023-08-06T10:07:47;3.25;;;1.38;;
7487;SDS011;3785;52.260;4.728;2023-08-06T10:11:10;2.47;;;1.30;;
7487;SDS011;3785;52.260;4.728;2023-08-06T10:14:33;2.92;;;1.27;;
7487;SDS011;3785;52.260;4.728;2023-08-06T10:17:56;3.08;;;1.55;;
7487;SDS011;3785;52.260;4.728;2023-08-06T10:21:18;2.03;;;1.17;;
7487;SDS011;3785;52.260;4.728;2023-08-06T10:24:51;4.63;;;1.70;;
7487;SDS011;3785;52.260;4.728;2023-08-06T10:28:13;3.45;;;1.38;;
7487;SDS011;3785;52.260;4.728;2023-08-06T10:35:27;2.22;;;1.20;;
7487;SDS011;3785;52.260;4.728;2023-08-06T10:38:50;3.30;;;1.40;;
7487;SDS011;3785;52.260;4.728;2023-08-06T10:42:21;2.13;;;1.30;;
7487;SDS011;3785;52.260;4.728;2023-08-06T10:45:42;1.85;;;1.10;;
7487;SDS011;3785;52.260;4.728;2023-08-06T10:49:11;1.58;;;0.80;;
7487;SDS011;3785;52.260;4.728;2023-08-06T10:52:33;1.83;;;0.90;;
7487;SDS011;3785;52.260;4.728;2023-08-06T10:55:54;1.55;;;0.82;;
7487;SDS011;3785;52.260;4.728;2023-08-06T10:59:15;2.00;;;0.90;;
7487;SDS011;3785;52.260;4.728;2023-08-06T11:02:36;3.03;;;0.82;;
7487;SDS011;3785;52.260;4.728;2023-08-06T11:05:57;2.33;;;0.95;;
7487;SDS011;3785;52.260;4.728;2023-08-06T11:09:18;1.67;;;0.80;;
7487;SDS011;3785;52.260;4.728;2023-08-06T11:12:39;3.83;;;0.68;;
7487;SDS011;3785;52.260;4.728;2023-08-06T11:16:00;1.17;;;0.70;;
7487;SDS011;3785;52.260;4.728;2023-08-06T11:19:22;2.28;;;0.75;;
7487;SDS011;3785;52.260;4.728;2023-08-06T11:22:43;2.15;;;0.73;;
7487;SDS011;3785;52.260;4.728;2023-08-06T11:26:04;1.20;;;0.60;;
7487;SDS011;3785;52.260;4.728;2023-08-06T11:29:25;1.65;;;0.77;;
7487;SDS011;3785;52.260;4.728;2023-08-06T11:32:47;0.90;;;0.60;;
7487;SDS011;3785;52.260;4.728;2023-08-06T11:36:08;3.10;;;0.80;;
7487;SDS011;3785;52.260;4.728;2023-08-06T11:39:29;1.30;;;0.80;;
7487;SDS011;3785;52.260;4.728;2023-08-06T11:42:50;1.92;;;0.90;;
7487;SDS011;3785;52.260;4.728;2023-08-06T11:46:11;1.60;;;0.70;;
7487;SDS011;3785;52.260;4.728;2023-08-06T11:53:04;2.15;;;0.70;;
7487;SDS011;3785;52.260;4.728;2023-08-06T11:56:25;1.80;;;0.60;;
7487;SDS011;3785;52.260;4.728;2023-08-06T11:59:47;1.50;;;0.80;;
7487;SDS011;3785;52.260;4.728;2023-08-06T12:03:09;1.10;;;0.60;;
7487;SDS011;3785;52.260;4.728;2023-08-06T12:06:30;0.73;;;0.52;;
7487;SDS011;3785;52.260;4.728;2023-08-06T12:09:51;2.47;;;0.90;;
7487;SDS011;3785;52.260;4.728;2023-08-06T12:13:12;1.38;;;0.70;;
7487;SDS011;3785;52.260;4.728;2023-08-06T12:16:33;1.17;;;0.70;;
7487;SDS011;3785;52.260;4.728;2023-08-06T12:19:56;1.48;;;0.70;;
7487;SDS011;3785;52.260;4.728;2023-08-06T12:23:17;2.22;;;1.15;;
7487;SDS011;3785;52.260;4.728;2023-08-06T12:26:38;1.63;;;0.95;;
7487;SDS011;3785;52.260;4.728;2023-08-06T12:29:59;2.00;;;0.75;;
7487;SDS011;3785;52.260;4.728;2023-08-06T12:33:20;1.52;;;0.75;;
7487;SDS011;3785;52.260;4.728;2023-08-06T12:36:41;0.90;;;0.60;;
7487;SDS011;3785;52.260;4.728;2023-08-06T12:40:02;0.90;;;0.60;;
7487;SDS011;3785;52.260;4.728;2023-08-06T12:43:23;1.52;;;0.50;;
7487;SDS011;3785;52.260;4.728;2023-08-06T12:46:44;2.33;;;0.70;;
7487;SDS011;3785;52.260;4.728;2023-08-06T12:50:05;1.52;;;0.60;;
7487;SDS011;3785;52.260;4.728;2023-08-06T12:53:26;1.45;;;0.70;;
7487;SDS011;3785;52.260;4.728;2023-08-06T12:56:47;1.98;;;0.60;;
7487;SDS011;3785;52.260;4.728;2023-08-06T13:00:08;2.50;;;0.60;;
7487;SDS011;3785;52.260;4.728;2023-08-06T13:03:30;1.35;;;0.70;;
7487;SDS011;3785;52.260;4.728;2023-08-06T13:06:50;1.70;;;0.65;;
7487;SDS011;3785;52.260;4.728;2023-08-06T13:10:11;1.17;;;0.55;;
7487;SDS011;3785;52.260;4.728;2023-08-06T13:13:32;0.90;;;0.73;;
7487;SDS011;3785;52.260;4.728;2023-08-06T13:16:53;1.00;;;0.68;;
7487;SDS011;3785;52.260;4.728;2023-08-06T13:20:14;1.00;;;0.70;;
7487;SDS011;3785;52.260;4.728;2023-08-06T13:23:35;2.30;;;0.90;;
7487;SDS011;3785;52.260;4.728;2023-08-06T13:26:57;3.75;;;0.90;;
7487;SDS011;3785;52.260;4.728;2023-08-06T13:30:18;2.33;;;0.90;;
7487;SDS011;3785;52.260;4.728;2023-08-06T13:33:39;1.50;;;0.60;;
7487;SDS011;3785;52.260;4.728;2023-08-06T13:36:59;1.60;;;0.90;;
7487;SDS011;3785;52.260;4.728;2023-08-06T13:40:20;1.23;;;0.68;;
7487;SDS011;3785;52.260;4.728;2023-08-06T13:43:42;1.42;;;0.57;;
7487;SDS011;3785;52.260;4.728;2023-08-06T13:47:04;0.55;;;0.40;;
7487;SDS011;3785;52.260;4.728;2023-08-06T13:50:25;4.22;;;0.68;;
7487;SDS011;3785;52.260;4.728;2023-08-06T13:53:46;3.05;;;0.70;;
7487;SDS011;3785;52.260;4.728;2023-08-06T13:57:07;1.13;;;0.40;;
7487;SDS011;3785;52.260;4.728;2023-08-06T14:00:28;1.60;;;0.47;;
7487;SDS011;3785;52.260;4.728;2023-08-06T14:03:50;3.55;;;0.50;;
7487;SDS011;3785;52.260;4.728;2023-08-06T14:07:11;1.45;;;0.30;;
7487;SDS011;3785;52.260;4.728;2023-08-06T14:10:32;0.73;;;0.35;;
7487;SDS011;3785;52.260;4.728;2023-08-06T14:13:53;2.85;;;0.47;;
7487;SDS011;3785;52.260;4.728;2023-08-06T14:17:14;2.58;;;0.60;;
7487;SDS011;3785;52.260;4.728;2023-08-06T14:20:35;3.88;;;0.60;;
7487;SDS011;3785;52.260;4.728;2023-08-06T14:23:56;1.40;;;0.35;;
7487;SDS011;3785;52.260;4.728;2023-08-06T14:27:17;1.63;;;0.38;;
7487;SDS011;3785;52.260;4.728;2023-08-06T14:30:38;1.48;;;0.40;;
7487;SDS011;3785;52.260;4.728;2023-08-06T14:33:59;3.92;;;0.80;;
7487;SDS011;3785;52.260;4.728;2023-08-06T14:37:20;2.08;;;0.63;;
7487;SDS011;3785;52.260;4.728;2023-08-06T14:40:43;4.15;;;0.57;;
7487;SDS011;3785;52.260;4.728;2023-08-06T14:44:04;2.15;;;0.85;;
7487;SDS011;3785;52.260;4.728;2023-08-06T14:47:25;7.57;;;1.10;;
7487;SDS011;3785;52.260;4.728;2023-08-06T14:50:46;0.95;;;0.20;;
7487;SDS011;3785;52.260;4.728;2023-08-06T14:54:07;2.28;;;0.52;;
7487;SDS011;3785;52.260;4.728;2023-08-06T14:57:27;2.75;;;0.60;;
7487;SDS011;3785;52.260;4.728;2023-08-06T15:00:48;2.33;;;0.47;;
7487;SDS011;3785;52.260;4.728;2023-08-06T15:04:10;5.82;;;0.70;;
7487;SDS011;3785;52.260;4.728;2023-08-06T15:07:31;3.42;;;0.75;;
7487;SDS011;3785;52.260;4.728;2023-08-06T15:10:55;4.07;;;0.70;;
7487;SDS011;3785;52.260;4.728;2023-08-06T15:14:16;2.58;;;0.50;;
7487;SDS011;3785;52.260;4.728;2023-08-06T15:17:37;2.55;;;0.80;;
7487;SDS011;3785;52.260;4.728;2023-08-06T15:20:58;3.22;;;0.70;;
7487;SDS011;3785;52.260;4.728;2023-08-06T15:24:20;3.28;;;0.85;;
7487;SDS011;3785;52.260;4.728;2023-08-06T15:27:41;1.95;;;0.70;;
7487;SDS011;3785;52.260;4.728;2023-08-06T15:31:02;4.45;;;0.93;;
7487;SDS011;3785;52.260;4.728;2023-08-06T15:34:28;3.20;;;0.65;;
7487;SDS011;3785;52.260;4.728;2023-08-06T15:37:49;10.43;;;1.58;;
7487;SDS011;3785;52.260;4.728;2023-08-06T15:41:10;2.45;;;0.57;;
7487;SDS011;3785;52.260;4.728;2023-08-06T15:44:31;3.17;;;0.77;;
7487;SDS011;3785;52.260;4.728;2023-08-06T15:47:52;5.65;;;1.02;;
7487;SDS011;3785;52.260;4.728;2023-08-06T15:51:13;5.18;;;1.08;;
7487;SDS011;3785;52.260;4.728;2023-08-06T15:54:34;3.63;;;0.93;;
7487;SDS011;3785;52.260;4.728;2023-08-06T15:57:55;6.03;;;0.80;;
7487;SDS011;3785;52.260;4.728;2023-08-06T16:01:16;6.57;;;1.30;;
7487;SDS011;3785;52.260;4.728;2023-08-06T16:04:37;3.42;;;1.00;;
7487;SDS011;3785;52.260;4.728;2023-08-06T16:07:58;3.13;;;1.02;;
7487;SDS011;3785;52.260;4.728;2023-08-06T16:11:19;5.50;;;1.00;;
7487;SDS011;3785;52.260;4.728;2023-08-06T16:14:40;3.15;;;0.68;;
7487;SDS011;3785;52.260;4.728;2023-08-06T16:18:02;3.92;;;0.82;;
7487;SDS011;3785;52.260;4.728;2023-08-06T16:21:23;4.85;;;1.20;;
7487;SDS011;3785;52.260;4.728;2023-08-06T16:24:44;3.35;;;0.47;;
7487;SDS011;3785;52.260;4.728;2023-08-06T16:28:05;2.92;;;0.40;;
7487;SDS011;3785;52.260;4.728;2023-08-06T16:31:26;1.98;;;0.65;;
7487;SDS011;3785;52.260;4.728;2023-08-06T16:34:47;2.58;;;0.85;;
7487;SDS011;3785;52.260;4.728;2023-08-06T16:38:09;2.95;;;0.70;;
7487;SDS011;3785;52.260;4.728;2023-08-06T16:41:31;3.95;;;0.70;;
7487;SDS011;3785;52.260;4.728;2023-08-06T16:44:52;2.50;;;0.77;;
7487;SDS011;3785;52.260;4.728;2023-08-06T16:48:13;3.72;;;0.90;;
7487;SDS011;3785;52.260;4.728;2023-08-06T16:51:34;7.18;;;1.52;;
7487;SDS011;3785;52.260;4.728;2023-08-06T16:54:55;5.68;;;1.27;;
7487;SDS011;3785;52.260;4.728;2023-08-06T16:58:16;3.15;;;1.02;;
7487;SDS011;3785;52.260;4.728;2023-08-06T17:01:37;4.18;;;0.73;;
7487;SDS011;3785;52.260;4.728;2023-08-06T17:04:59;3.80;;;1.02;;
7487;SDS011;3785;52.260;4.728;2023-08-06T17:08:20;3.33;;;0.75;;
7487;SDS011;3785;52.260;4.728;2023-08-06T17:11:41;5.28;;;0.95;;
7487;SDS011;3785;52.260;4.728;2023-08-06T17:15:02;2.13;;;0.75;;
7487;SDS011;3785;52.260;4.728;2023-08-06T17:18:23;3.88;;;0.60;;
7487;SDS011;3785;52.260;4.728;2023-08-06T17:21:44;2.58;;;0.60;;
7487;SDS011;3785;52.260;4.728;2023-08-06T17:25:05;2.45;;;0.82;;
7487;SDS011;3785;52.260;4.728;2023-08-06T17:28:26;2.42;;;0.73;;
7487;SDS011;3785;52.260;4.728;2023-08-06T17:31:47;2.67;;;0.50;;
7487;SDS011;3785;52.260;4.728;2023-08-06T17:35:08;2.55;;;0.65;;
7487;SDS011;3785;52.260;4.728;2023-08-06T17:38:29;1.52;;;0.50;;
7487;SDS011;3785;52.260;4.728;2023-08-06T17:41:50;0.45;;;0.32;;
7487;SDS011;3785;52.260;4.728;2023-08-06T17:45:11;4.80;;;0.90;;
7487;SDS011;3785;52.260;4.728;2023-08-06T17:48:32;3.17;;;0.60;;
7487;SDS011;3785;52.260;4.728;2023-08-06T17:51:53;3.55;;;0.80;;
7487;SDS011;3785;52.260;4.728;2023-08-06T17:55:14;3.33;;;0.90;;
7487;SDS011;3785;52.260;4.728;2023-08-06T17:58:35;5.30;;;0.60;;
7487;SDS011;3785;52.260;4.728;2023-08-06T18:01:56;2.50;;;0.55;;
7487;SDS011;3785;52.260;4.728;2023-08-06T18:05:17;1.98;;;0.40;;
7487;SDS011;3785;52.260;4.728;2023-08-06T18:08:38;2.20;;;1.02;;
7487;SDS011;3785;52.260;4.728;2023-08-06T18:11:59;2.83;;;0.85;;
7487;SDS011;3785;52.260;4.728;2023-08-06T18:15:20;3.70;;;0.77;;
7487;SDS011;3785;52.260;4.728;2023-08-06T18:18:41;1.52;;;0.50;;
7487;SDS011;3785;52.260;4.728;2023-08-06T18:22:02;4.38;;;0.85;;
7487;SDS011;3785;52.260;4.728;2023-08-06T18:25:23;4.00;;;0.80;;
7487;SDS011;3785;52.260;4.728;2023-08-06T18:28:44;2.35;;;1.10;;
7487;SDS011;3785;52.260;4.728;2023-08-06T18:32:05;3.67;;;0.70;;
7487;SDS011;3785;52.260;4.728;2023-08-06T18:35:26;4.22;;;0.90;;
7487;SDS011;3785;52.260;4.728;2023-08-06T18:38:47;1.20;;;0.60;;
7487;SDS011;3785;52.260;4.728;2023-08-06T18:42:10;7.00;;;1.20;;
7487;SDS011;3785;52.260;4.728;2023-08-06T18:45:31;2.08;;;0.75;;
7487;SDS011;3785;52.260;4.728;2023-08-06T18:48:58;2.53;;;1.08;;
7487;SDS011;3785;52.260;4.728;2023-08-06T18:52:19;2.53;;;0.70;;
7487;SDS011;3785;52.260;4.728;2023-08-06T18:55:47;4.53;;;0.65;;
7487;SDS011;3785;52.260;4.728;2023-08-06T18:59:09;2.17;;;0.80;;
7487;SDS011;3785;52.260;4.728;2023-08-06T19:02:31;6.15;;;1.00;;
7487;SDS011;3785;52.260;4.728;2023-08-06T19:05:57;3.72;;;0.88;;
7487;SDS011;3785;52.260;4.728;2023-08-06T19:09:18;4.30;;;0.90;;
7487;SDS011;3785;52.260;4.728;2023-08-06T19:12:39;3.75;;;0.68;;
7487;SDS011;3785;52.260;4.728;2023-08-06T19:16:00;4.03;;;0.98;;
7487;SDS011;3785;52.260;4.728;2023-08-06T19:19:21;3.20;;;0.93;;
7487;SDS011;3785;52.260;4.728;2023-08-06T19:22:42;5.80;;;0.98;;
7487;SDS011;3785;52.260;4.728;2023-08-06T19:26:03;4.15;;;1.10;;
7487;SDS011;3785;52.260;4.728;2023-08-06T19:29:24;1.63;;;0.77;;
7487;SDS011;3785;52.260;4.728;2023-08-06T19:32:45;3.13;;;1.00;;
7487;SDS011;3785;52.260;4.728;2023-08-06T19:36:06;2.25;;;0.77;;
7487;SDS011;3785;52.260;4.728;2023-08-06T19:39:27;2.42;;;0.80;;
7487;SDS011;3785;52.260;4.728;2023-08-06T19:42:48;5.38;;;0.93;;
7487;SDS011;3785;52.260;4.728;2023-08-06T19:46:09;3.13;;;0.82;;
7487;SDS011;3785;52.260;4.728;2023-08-06T19:49:30;1.25;;;0.57;;
7487;SDS011;3785;52.260;4.728;2023-08-06T19:52:51;4.22;;;0.75;;
7487;SDS011;3785;52.260;4.728;2023-08-06T19:56:12;5.85;;;1.20;;
7487;SDS011;3785;52.260;4.728;2023-08-06T19:59:33;1.60;;;0.90;;
7487;SDS011;3785;52.260;4.728;2023-08-06T20:02:54;3.97;;;1.00;;
7487;SDS011;3785;52.260;4.728;2023-08-06T20:06:15;3.50;;;0.65;;
7487;SDS011;3785;52.260;4.728;2023-08-06T20:09:38;3.42;;;0.88;;
7487;SDS011;3785;52.260;4.728;2023-08-06T20:12:59;8.48;;;0.85;;
7487;SDS011;3785;52.260;4.728;2023-08-06T20:16:20;3.63;;;0.88;;
7487;SDS011;3785;52.260;4.728;2023-08-06T20:19:41;1.58;;;0.55;;
7487;SDS011;3785;52.260;4.728;2023-08-06T20:23:02;2.72;;;0.60;;
7487;SDS011;3785;52.260;4.728;2023-08-06T20:26:23;2.00;;;0.70;;
7487;SDS011;3785;52.260;4.728;2023-08-06T20:29:44;5.97;;;0.63;;
7487;SDS011;3785;52.260;4.728;2023-08-06T20:33:05;1.90;;;0.60;;
7487;SDS011;3785;52.260;4.728;2023-08-06T20:36:26;4.57;;;0.55;;
7487;SDS011;3785;52.260;4.728;2023-08-06T20:39:47;2.42;;;0.60;;
7487;SDS011;3785;52.260;4.728;2023-08-06T20:43:08;2.50;;;0.63;;
7487;SDS011;3785;52.260;4.728;2023-08-06T20:46:29;3.58;;;0.70;;
7487;SDS011;3785;52.260;4.728;2023-08-06T20:49:50;3.47;;;1.25;;
7487;SDS011;3785;52.260;4.728;2023-08-06T20:53:11;2.10;;;0.80;;
7487;SDS011;3785;52.260;4.728;2023-08-06T20:56:32;4.13;;;0.73;;
7487;SDS011;3785;52.260;4.728;2023-08-06T20:59:53;2.03;;;0.70;;
7487;SDS011;3785;52.260;4.728;2023-08-06T21:03:14;2.08;;;0.65;;